Liberty, Kentucky
Current Conditions -  °F | °C
As of 11:15 AM on Saturday 25 Oct 2014 (Local Time) from KDVK Reporting Station
Overcast Overcast  
Wind Chill: 55°   Ceiling: 4000
Heat Index: 55°   Visibility: 10mi
Dew Point: 50°   Wind: 6mph
Humidity: 82%   Direction: 200°SSW
Pressure: 30.07"   Gusts: NA
Location:  37.32°N, 84.94°W
Report Text: KDVK 251515Z AUTO 20005KT 10SM OVC040 13/10 A3007 RMK AO2
Loading
Personal Weather Stations






























Interactive Weather Map
Tropical Storm Tracking
New forecast layout! Learn more

10-Day Weather Forecast

Advertisements
Track Severe Weather on mobile